Skip Navigation LinksHome page > Weather > Current weather Skip Navigation Links

Current Weather

New Tokyo International (Narita), Tokyo

For information only: do not use for flight planning or navigation.
Latest weather
Observation time Saturday, August 23, 2014 8:00 PM JST
Local time Saturday, August 23, 2014 8:24 PM JST
Flight conditions Low Instrument Meteorological Conditions
Winds
Wind direction South-Southeast (150°)
Wind speed 7 mph
Visibility 6.2 mi.
Sky condition
Ceiling 0 ft. broken clouds
Cloud layer broken clouds 0 ft.
Cloud layer few clouds 1,500 ft.
Temperature 73°F
Dewpoint 70°F
Altimeter 29.85 in.Hg
Derived measurements
Relative humidity 89%
Density altitude 1486 ft.
Remarks
No significant changes expected in the next two hours.
METAR RJAA 231100Z 15006KT 9999 FEW015 BKN/// 23/21 Q1011 NOSIG RMK 1CU015 A2985

Settings

Location code

InnerDrive.Weather 4.0.5341.0 Release CLR 4.0.30319.34014
Copyright ©2014 Inner Drive Technology. All rights reserved. Portions Copyright ©1986-2014 David Braverman.

Find weather

Site navigation


Skip Navigation Links

Place info

Page info

PayPal - The safer, easier way to pay online!

Return home.

Copyright ©2014 Inner Drive Technology. Purveyors of fine, hand-crafted computer software. Page printed 2014-08-23T11:24:37 UTC.